Time;durP1;ratioP1;P1;durP2;ratioP2;P2;SDS_P1;SDS_P2;PMS_P1;PMS_P2;Temp;Humidity;BMP_temperature;BMP_pressure;BME280_temperature;BME280_humidity;BME280_pressure;Samples;Min_cycle;Max_cycle;Signal;HPM_P1;HPM_P2
2021/07/23 00:00:40;;;;;;;13.40;7.53;;;17.20;99.90;;;;;;5142417;27;20482;-65
2021/07/23 00:03:06;;;;;;;13.18;8.73;;;17.10;99.90;;;;;;5133338;27;20100;-65
2021/07/23 00:05:32;;;;;;;12.38;7.43;;;17.10;99.90;;;;;;5139873;27;20054;-65
2021/07/23 00:07:58;;;;;;;10.63;7.95;;;17.10;99.90;;;;;;5138262;27;20048;-65
2021/07/23 00:10:24;;;;;;;10.18;7.57;;;17.00;99.90;;;;;;5137541;27;20039;-65
2021/07/23 00:12:50;;;;;;;13.98;6.78;;;17.00;99.90;;;;;;5139619;27;20104;-65
2021/07/23 00:15:15;;;;;;;10.35;6.55;;;17.10;99.90;;;;;;5127135;27;20044;-65
2021/07/23 00:17:41;;;;;;;10.23;7.13;;;17.10;99.90;;;;;;5139282;27;20032;-66
2021/07/23 00:20:08;;;;;;;10.45;7.30;;;17.10;99.90;;;;;;5133428;27;20043;-65
2021/07/23 00:22:34;;;;;;;10.20;6.97;;;17.20;99.90;;;;;;5125977;27;20039;-65
2021/07/23 00:25:00;;;;;;;11.15;6.72;;;17.20;99.90;;;;;;5106275;27;20058;-65
2021/07/23 00:27:25;;;;;;;10.18;6.68;;;17.10;99.90;;;;;;5139083;27;20047;-65
2021/07/23 00:29:51;;;;;;;12.85;6.65;;;17.10;99.90;;;;;;5131374;27;20150;-65
2021/07/23 00:32:17;;;;;;;10.13;6.53;;;17.20;99.90;;;;;;5124215;27;20380;-65
2021/07/23 00:34:43;;;;;;;10.18;6.32;;;17.20;99.90;;;;;;5144808;27;20049;-65
2021/07/23 00:37:09;;;;;;;11.80;7.57;;;17.20;99.90;;;;;;5137181;27;20047;-65
2021/07/23 00:39:35;;;;;;;10.60;7.20;;;17.20;99.90;;;;;;5125162;28;20471;-65
2021/07/23 00:42:00;;;;;;;10.73;6.18;;;17.20;99.90;;;;;;5134066;28;20051;-65
2021/07/23 00:44:27;;;;;;;11.27;6.82;;;17.10;99.90;;;;;;5126879;28;20044;-65
2021/07/23 00:46:55;;;;;;;11.40;6.68;;;17.10;99.90;;;;;;5135348;28;20112;-65
2021/07/23 00:49:22;;;;;;;10.43;7.18;;;17.10;99.90;;;;;;5127821;28;20040;-65
2021/07/23 00:51:49;;;;;;;12.30;7.07;;;17.10;99.90;;;;;;5134618;28;20043;-65
2021/07/23 00:54:15;;;;;;;13.83;8.23;;;17.10;99.90;;;;;;5141814;28;20059;-65
2021/07/23 00:56:41;;;;;;;10.80;7.72;;;17.10;99.90;;;;;;5143755;28;20313;-65
2021/07/23 00:59:07;;;;;;;11.70;7.28;;;17.10;99.90;;;;;;5137095;27;20042;-65
2021/07/23 01:01:33;;;;;;;10.35;6.00;;;17.00;99.90;;;;;;5147419;27;20430;-65
2021/07/23 01:04:01;;;;;;;9.15;5.57;;;17.00;99.90;;;;;;5141212;27;20050;-65
2021/07/23 01:06:27;;;;;;;10.52;6.32;;;17.00;99.90;;;;;;5131537;27;20044;-65
2021/07/23 01:08:53;;;;;;;24.65;6.07;;;17.00;99.90;;;;;;5131744;27;20050;-65
2021/07/23 01:11:19;;;;;;;10.43;5.32;;;16.90;99.90;;;;;;5133214;27;20039;-66
2021/07/23 01:13:45;;;;;;;10.35;5.65;;;16.90;99.90;;;;;;5116118;28;20094;-66
2021/07/23 01:16:11;;;;;;;11.20;5.78;;;16.90;99.90;;;;;;5128250;27;20058;-66
2021/07/23 01:18:37;;;;;;;8.48;5.80;;;16.90;99.90;;;;;;5135641;27;20069;-66
2021/07/23 01:21:03;;;;;;;7.28;5.32;;;16.90;99.90;;;;;;5137929;27;20039;-66
2021/07/23 01:23:31;;;;;;;7.35;5.28;;;16.80;99.90;;;;;;5122624;27;20517;-66
2021/07/23 01:25:59;;;;;;;8.80;5.65;;;16.90;99.90;;;;;;5147587;27;20043;-66
2021/07/23 01:28:27;;;;;;;8.52;4.95;;;16.90;99.90;;;;;;5133902;27;20039;-66
2021/07/23 01:30:53;;;;;;;7.85;4.85;;;16.90;99.90;;;;;;5128472;27;20048;-66
2021/07/23 01:33:19;;;;;;;8.13;5.43;;;16.90;99.90;;;;;;5135579;27;20043;-66
2021/07/23 01:35:45;;;;;;;8.15;5.28;;;16.80;99.90;;;;;;5130348;27;20046;-66
2021/07/23 01:38:12;;;;;;;7.70;4.53;;;16.80;99.90;;;;;;5134118;27;20044;-66
2021/07/23 01:40:38;;;;;;;5.45;4.25;;;16.80;99.90;;;;;;5133373;27;20047;-66
2021/07/23 01:43:04;;;;;;;7.97;4.80;;;16.70;99.90;;;;;;5143076;27;20039;-66
2021/07/23 01:45:30;;;;;;;9.88;5.28;;;16.70;99.90;;;;;;5137243;27;20272;-66
2021/07/23 01:47:55;;;;;;;8.88;5.07;;;16.70;99.90;;;;;;5130938;27;20394;-66
2021/07/23 01:50:21;;;;;;;9.82;4.57;;;16.70;99.90;;;;;;5137298;27;20035;-66
2021/07/23 01:52:47;;;;;;;10.77;5.10;;;16.70;99.90;;;;;;5144122;27;20047;-66
2021/07/23 01:55:13;;;;;;;9.45;5.10;;;16.70;99.90;;;;;;5135704;27;20055;-66
2021/07/23 01:57:39;;;;;;;8.75;4.70;;;16.70;99.90;;;;;;5141768;27;20043;-66
2021/07/23 02:00:05;;;;;;;10.18;6.05;;;16.70;99.90;;;;;;5127435;27;20047;-66
2021/07/23 02:02:31;;;;;;;8.10;5.28;;;16.70;99.90;;;;;;5126737;28;20057;-66
2021/07/23 02:05:00;;;;;;;10.05;5.07;;;16.70;99.90;;;;;;5134327;27;20043;-66
2021/07/23 02:07:27;;;;;;;6.75;4.70;;;16.70;99.90;;;;;;5141706;27;20066;-66
2021/07/23 02:09:53;;;;;;;7.15;4.78;;;16.70;99.90;;;;;;5141387;27;21742;-66
2021/07/23 02:12:19;;;;;;;10.60;4.45;;;16.70;99.90;;;;;;5134265;27;20039;-66
2021/07/23 02:14:45;;;;;;;7.20;4.57;;;16.70;99.90;;;;;;5128182;27;20127;-66
2021/07/23 02:17:13;;;;;;;8.20;4.30;;;16.70;99.90;;;;;;5127015;27;20466;-66
2021/07/23 02:19:39;;;;;;;10.27;4.63;;;16.70;99.90;;;;;;5124259;27;20043;-65
2021/07/23 02:22:06;;;;;;;6.70;4.82;;;16.70;99.90;;;;;;5137586;27;20046;-65
2021/07/23 02:24:32;;;;;;;7.75;4.60;;;16.70;99.90;;;;;;5144808;27;20047;-65
2021/07/23 02:26:58;;;;;;;8.00;4.30;;;16.70;99.90;;;;;;5131090;27;20047;-66
2021/07/23 02:29:24;;;;;;;9.13;4.40;;;16.60;99.90;;;;;;5129956;27;20044;-65
2021/07/23 02:31:50;;;;;;;6.55;4.75;;;16.70;99.90;;;;;;5128974;27;20118;-65
2021/07/23 02:34:16;;;;;;;8.48;5.18;;;16.70;99.90;;;;;;5130912;27;20043;-66
2021/07/23 02:36:42;;;;;;;7.20;4.35;;;16.70;99.90;;;;;;5128752;27;20091;-66
2021/07/23 02:39:07;;;;;;;7.40;4.47;;;16.70;99.90;;;;;;5126492;27;20040;-65
2021/07/23 02:41:33;;;;;;;8.50;4.90;;;16.70;99.90;;;;;;5126812;27;20044;-65
2021/07/23 02:44:00;;;;;;;10.80;5.22;;;16.60;99.90;;;;;;5139804;27;20066;-65
2021/07/23 02:46:26;;;;;;;9.02;4.47;;;16.60;99.90;;;;;;5136385;27;20039;-65
2021/07/23 02:48:51;;;;;;;6.65;4.57;;;16.60;99.90;;;;;;5116066;28;20061;-65
2021/07/23 02:51:17;;;;;;;8.98;5.22;;;16.60;99.90;;;;;;5126822;27;20062;-65
2021/07/23 02:53:43;;;;;;;8.18;4.72;;;16.60;99.90;;;;;;5134848;27;20232;-65
2021/07/23 02:56:10;;;;;;;11.18;5.78;;;16.60;99.90;;;;;;5145948;27;20039;-66
2021/07/23 02:58:40;;;;;;;7.63;5.13;;;16.50;99.90;;;;;;5140165;27;20490;-66
2021/07/23 03:01:07;;;;;;;8.40;5.10;;;16.50;99.90;;;;;;5132761;27;20050;-67
2021/07/23 03:03:33;;;;;;;7.40;4.88;;;16.50;99.90;;;;;;5139829;27;20095;-65
2021/07/23 03:05:59;;;;;;;8.15;4.85;;;16.50;99.90;;;;;;5143099;27;20118;-66
2021/07/23 03:08:26;;;;;;;9.45;5.53;;;16.50;99.90;;;;;;5141098;27;20063;-66
2021/07/23 03:10:52;;;;;;;10.97;6.10;;;16.50;99.90;;;;;;5140457;27;20114;-66
2021/07/23 03:13:18;;;;;;;11.63;6.00;;;16.50;99.90;;;;;;5142567;27;20050;-66
2021/07/23 03:15:45;;;;;;;12.63;5.65;;;16.60;99.90;;;;;;5132628;27;20067;-66
2021/07/23 03:18:11;;;;;;;8.70;4.97;;;16.60;99.90;;;;;;5140117;27;20058;-66
2021/07/23 03:20:39;;;;;;;11.82;6.18;;;16.50;99.90;;;;;;5132125;27;20043;-66
2021/07/23 03:23:06;;;;;;;11.63;5.65;;;16.50;99.90;;;;;;5139735;27;20043;-66
2021/07/23 03:25:32;;;;;;;10.10;5.93;;;16.60;99.90;;;;;;5144838;27;20590;-66
2021/07/23 03:27:58;;;;;;;12.25;6.97;;;16.50;99.90;;;;;;5138587;27;20043;-66
2021/07/23 03:30:25;;;;;;;11.23;6.47;;;16.50;99.90;;;;;;5127550;27;20099;-66
2021/07/23 03:32:50;;;;;;;11.02;5.90;;;16.60;99.90;;;;;;5134026;27;20097;-66
2021/07/23 03:35:16;;;;;;;14.50;7.35;;;16.50;99.90;;;;;;5127226;27;20465;-66
2021/07/23 03:37:42;;;;;;;11.48;5.93;;;16.50;99.90;;;;;;5135322;27;20126;-66
2021/07/23 03:40:08;;;;;;;10.23;6.60;;;16.50;99.90;;;;;;5125352;28;20040;-66
2021/07/23 03:42:35;;;;;;;15.52;6.00;;;16.50;99.90;;;;;;5135752;27;20051;-66
2021/07/23 03:45:01;;;;;;;11.65;6.57;;;16.50;99.90;;;;;;5128782;27;20048;-66
2021/07/23 03:47:27;;;;;;;10.05;7.18;;;16.50;99.90;;;;;;5131080;27;20122;-66
2021/07/23 03:49:53;;;;;;;13.18;6.93;;;16.40;99.90;;;;;;5141432;27;20066;-66
2021/07/23 03:52:18;;;;;;;12.35;6.35;;;16.40;99.90;;;;;;5139139;27;20039;-66
2021/07/23 03:54:44;;;;;;;12.00;6.78;;;16.40;99.90;;;;;;5135645;27;20055;-66
2021/07/23 03:57:10;;;;;;;8.18;6.70;;;16.40;99.90;;;;;;5130437;27;20043;-66
2021/07/23 03:59:36;;;;;;;9.48;7.10;;;16.40;99.90;;;;;;5124969;27;20047;-66
2021/07/23 04:02:03;;;;;;;13.57;8.32;;;16.50;99.90;;;;;;5124593;27;20055;-66
2021/07/23 04:04:29;;;;;;;11.43;7.25;;;16.50;99.90;;;;;;5131545;27;20043;-66
2021/07/23 04:06:59;;;;;;;10.27;7.00;;;16.50;99.90;;;;;;5124600;28;20127;-66
2021/07/23 04:09:25;;;;;;;10.15;7.32;;;16.50;99.90;;;;;;5131807;27;20039;-66
2021/07/23 04:11:52;;;;;;;10.83;7.20;;;16.50;99.90;;;;;;5136086;27;20095;-66
2021/07/23 04:14:20;;;;;;;12.00;7.45;;;16.60;99.90;;;;;;5128377;27;20138;-66
2021/07/23 04:16:45;;;;;;;10.82;8.05;;;16.60;99.90;;;;;;5129358;27;20031;-66
2021/07/23 04:19:11;;;;;;;11.15;8.75;;;16.70;99.90;;;;;;5134711;27;20063;-66
2021/07/23 04:21:37;;;;;;;11.07;8.00;;;16.70;99.90;;;;;;5127946;27;20041;-66
2021/07/23 04:24:03;;;;;;;11.13;7.53;;;16.70;99.90;;;;;;5144339;27;20049;-66
2021/07/23 04:26:29;;;;;;;15.68;8.15;;;16.70;99.90;;;;;;5137497;27;20046;-66
2021/07/23 04:28:55;;;;;;;11.00;7.47;;;16.70;99.90;;;;;;5144563;27;20043;-66
2021/07/23 04:31:21;;;;;;;15.48;7.57;;;16.70;99.90;;;;;;5137637;27;20062;-66
2021/07/23 04:33:47;;;;;;;21.25;8.57;;;16.70;99.90;;;;;;5125129;27;20062;-66
2021/07/23 04:36:13;;;;;;;14.07;7.60;;;16.70;99.90;;;;;;5129302;27;20043;-66
2021/07/23 04:38:39;;;;;;;11.32;7.03;;;16.60;99.90;;;;;;5128869;27;20078;-66
2021/07/23 04:41:04;;;;;;;12.40;7.88;;;16.70;99.90;;;;;;5128402;28;20039;-66
2021/07/23 04:43:31;;;;;;;9.85;7.35;;;16.70;99.90;;;;;;5142926;28;20115;-66
2021/07/23 04:45:58;;;;;;;11.55;7.85;;;16.70;99.90;;;;;;5141689;28;20043;-66
2021/07/23 04:48:24;;;;;;;12.75;7.35;;;16.60;99.90;;;;;;5135962;28;20052;-66
2021/07/23 04:50:50;;;;;;;10.57;7.97;;;16.60;99.90;;;;;;5138640;28;20060;-66
2021/07/23 04:53:16;;;;;;;13.15;7.13;;;16.60;99.90;;;;;;5124336;28;20067;-66
2021/07/23 04:55:47;;;;;;;15.90;8.27;;;16.60;99.90;;;;;;5124625;28;20074;-65
2021/07/23 04:58:14;;;;;;;16.48;8.32;;;16.60;99.90;;;;;;5134477;28;20069;-66
2021/07/23 05:00:40;;;;;;;11.32;8.43;;;16.70;99.90;;;;;;5129187;28;20044;-66
2021/07/23 05:03:10;;;;;;;10.60;7.90;;;16.60;99.90;;;;;;5124790;28;20085;-66
2021/07/23 05:05:42;;;;;;;11.77;7.63;;;16.70;99.90;;;;;;5128716;28;20040;-67
2021/07/23 05:08:09;;;;;;;11.32;7.90;;;16.60;99.90;;;;;;5136509;28;20054;-65
2021/07/23 05:10:36;;;;;;;11.40;7.03;;;16.60;99.90;;;;;;5130024;28;20056;-66
2021/07/23 05:13:04;;;;;;;12.77;7.30;;;16.60;99.90;;;;;;5124908;28;20049;-66
2021/07/23 05:15:31;;;;;;;11.27;7.60;;;16.60;99.90;;;;;;5124261;28;20043;-65
2021/07/23 05:17:58;;;;;;;11.60;8.50;;;16.70;99.90;;;;;;5125067;28;20066;-66
2021/07/23 05:20:24;;;;;;;12.93;8.05;;;16.70;99.90;;;;;;5133386;28;20043;-66
2021/07/23 05:22:50;;;;;;;12.27;8.60;;;16.70;99.90;;;;;;5140533;28;20055;-66
2021/07/23 05:25:16;;;;;;;15.52;9.80;;;16.70;99.90;;;;;;5127177;28;20036;-66
2021/07/23 05:27:42;;;;;;;14.52;10.63;;;16.70;99.90;;;;;;5123946;28;20062;-66
2021/07/23 05:30:10;;;;;;;;;;;16.70;99.90;;;;;;5125310;28;20387;-66
2021/07/23 05:32:35;;;;;;;15.85;11.27;;;16.70;99.90;;;;;;5134641;28;19926;-66
2021/07/23 05:35:01;;;;;;;15.25;11.82;;;16.70;99.90;;;;;;5137866;28;20054;-66
2021/07/23 05:37:27;;;;;;;18.65;12.27;;;16.60;99.90;;;;;;5130494;28;20051;-66
2021/07/23 05:39:53;;;;;;;17.52;10.85;;;16.70;99.90;;;;;;5137415;28;20039;-66
2021/07/23 05:42:18;;;;;;;15.80;12.38;;;16.70;99.90;;;;;;5137150;28;20061;-66
2021/07/23 05:44:44;;;;;;;15.38;11.93;;;16.70;99.90;;;;;;5143584;27;20043;-66
2021/07/23 05:47:10;;;;;;;16.25;11.98;;;16.70;99.90;;;;;;5127669;28;20039;-66
2021/07/23 05:49:36;;;;;;;16.88;13.07;;;16.70;99.90;;;;;;5128252;27;20040;-66
2021/07/23 05:52:02;;;;;;;18.67;13.45;;;16.60;99.90;;;;;;5135815;27;20043;-66
2021/07/23 05:54:27;;;;;;;18.98;15.02;;;16.60;99.90;;;;;;5127630;27;20059;-66
2021/07/23 05:56:53;;;;;;;18.48;14.77;;;16.60;99.90;;;;;;5132569;27;20046;-66
2021/07/23 05:59:19;;;;;;;17.45;13.80;;;16.60;99.90;;;;;;5138703;27;20556;-66
2021/07/23 06:01:45;;;;;;;20.88;13.63;;;16.60;99.90;;;;;;5131205;27;20044;-66
2021/07/23 06:04:11;;;;;;;18.08;13.35;;;16.60;99.90;;;;;;5126908;27;20035;-66
2021/07/23 06:06:36;;;;;;;18.00;14.10;;;16.60;99.90;;;;;;5133048;27;20047;-66
2021/07/23 06:09:02;;;;;;;16.05;11.10;;;16.60;99.90;;;;;;5135436;27;20130;-66
2021/07/23 06:11:28;;;;;;;12.70;10.25;;;16.60;99.90;;;;;;5131502;27;20464;-66
2021/07/23 06:13:54;;;;;;;13.23;8.18;;;16.60;99.90;;;;;;5133878;27;20038;-66
2021/07/23 06:16:20;;;;;;;15.30;9.68;;;16.70;99.90;;;;;;5139392;27;20039;-66
2021/07/23 06:18:46;;;;;;;12.68;9.77;;;16.60;99.90;;;;;;5126892;27;20095;-66
2021/07/23 06:21:13;;;;;;;13.93;8.60;;;16.70;99.90;;;;;;5128675;27;20065;-66
2021/07/23 06:23:39;;;;;;;13.05;10.85;;;16.80;99.90;;;;;;5128326;27;20039;-66
2021/07/23 06:26:06;;;;;;;15.23;9.77;;;16.70;99.90;;;;;;5135522;27;20044;-66
2021/07/23 06:28:32;;;;;;;15.60;10.27;;;16.80;99.90;;;;;;5144449;27;20047;-66
2021/07/23 06:30:59;;;;;;;15.23;10.07;;;16.80;99.90;;;;;;5136133;27;20133;-66
2021/07/23 06:33:25;;;;;;;12.98;9.68;;;16.90;99.90;;;;;;5144543;27;20050;-66
2021/07/23 06:35:51;;;;;;;12.23;9.88;;;17.00;99.90;;;;;;5126488;28;20089;-66
2021/07/23 06:38:16;;;;;;;17.35;9.75;;;16.90;99.90;;;;;;5126903;27;20502;-66
2021/07/23 06:40:42;;;;;;;15.27;10.15;;;17.00;99.90;;;;;;5138771;27;20104;-66
2021/07/23 06:43:08;;;;;;;13.73;9.18;;;17.00;99.90;;;;;;5131642;27;20118;-66
2021/07/23 06:45:33;;;;;;;13.77;10.25;;;17.00;99.90;;;;;;5138716;27;20062;-66
2021/07/23 06:48:00;;;;;;;15.70;10.18;;;17.10;99.90;;;;;;5132191;27;20066;-66
2021/07/23 06:50:26;;;;;;;14.18;9.50;;;17.10;99.90;;;;;;5128133;27;20119;-66
2021/07/23 06:52:52;;;;;;;12.88;9.93;;;17.10;99.90;;;;;;5132010;27;20093;-66
2021/07/23 06:55:17;;;;;;;15.15;10.68;;;17.20;99.90;;;;;;5126665;27;20055;-66
2021/07/23 06:57:43;;;;;;;14.07;10.23;;;17.20;99.90;;;;;;5131735;27;20107;-66
2021/07/23 07:00:11;;;;;;;13.77;9.50;;;17.20;99.90;;;;;;5139375;27;20050;-67
2021/07/23 07:02:37;;;;;;;15.32;9.52;;;17.20;99.90;;;;;;5135137;27;20047;-66
2021/07/23 07:05:03;;;;;;;11.85;7.60;;;17.30;99.90;;;;;;5131298;27;20076;-66
2021/07/23 07:07:28;;;;;;;16.77;8.55;;;17.30;99.90;;;;;;5129000;27;20085;-66
2021/07/23 07:09:54;;;;;;;10.25;8.20;;;17.40;99.90;;;;;;5135769;27;20050;-66
2021/07/23 07:12:20;;;;;;;13.82;8.77;;;17.40;99.90;;;;;;5135030;27;20031;-66
2021/07/23 07:14:46;;;;;;;10.30;7.88;;;17.50;99.90;;;;;;5135585;27;20043;-66
2021/07/23 07:17:13;;;;;;;13.27;10.20;;;17.50;99.90;;;;;;5145272;27;20045;-66
2021/07/23 07:19:38;;;;;;;11.60;7.15;;;17.60;99.90;;;;;;5138262;27;20047;-66
2021/07/23 07:22:05;;;;;;;14.38;7.95;;;17.50;99.90;;;;;;5126241;27;20042;-66
2021/07/23 07:24:30;;;;;;;14.90;8.18;;;17.50;99.90;;;;;;5125734;27;20039;-66
2021/07/23 07:26:56;;;;;;;9.93;7.13;;;17.60;99.90;;;;;;5143035;27;20039;-66
2021/07/23 07:29:22;;;;;;;10.32;7.10;;;17.60;99.90;;;;;;5145631;27;20047;-66
2021/07/23 07:31:48;;;;;;;10.02;7.20;;;17.70;99.90;;;;;;5127877;27;20455;-66
2021/07/23 07:34:14;;;;;;;11.80;7.75;;;17.80;99.90;;;;;;5125766;28;20440;-66
2021/07/23 07:36:39;;;;;;;11.85;6.72;;;17.80;99.90;;;;;;5137913;27;20035;-66
2021/07/23 07:39:06;;;;;;;14.40;7.60;;;17.90;99.90;;;;;;5143023;27;20039;-66
2021/07/23 07:41:32;;;;;;;12.00;7.60;;;17.90;99.90;;;;;;5137955;27;20113;-66
2021/07/23 07:43:58;;;;;;;9.50;6.57;;;18.00;99.90;;;;;;5129451;27;20039;-66
2021/07/23 07:46:23;;;;;;;12.65;6.40;;;18.00;99.90;;;;;;5134744;27;20563;-66
2021/07/23 07:48:49;;;;;;;7.25;6.10;;;18.20;99.90;;;;;;5136868;27;20034;-66
2021/07/23 07:51:15;;;;;;;12.40;6.78;;;18.20;99.90;;;;;;5124893;28;20396;-66
2021/07/23 07:53:42;;;;;;;13.15;6.43;;;18.30;99.90;;;;;;5130127;27;20071;-66
2021/07/23 07:56:12;;;;;;;8.27;5.65;;;18.40;99.90;;;;;;5125172;28;20051;-66
2021/07/23 07:58:38;;;;;;;8.55;5.55;;;18.50;99.90;;;;;;5130769;27;20406;-66
2021/07/23 08:01:08;;;;;;;8.88;5.68;;;18.50;99.90;;;;;;5130088;27;20054;-66
2021/07/23 08:03:34;;;;;;;5.35;4.35;;;18.70;99.90;;;;;;5134973;27;20040;-66
2021/07/23 08:06:21;;;;;;;7.47;5.03;;;18.80;99.90;;;;;;5125086;28;20040;-66
2021/07/23 08:08:48;;;;;;;5.80;4.78;;;18.90;99.90;;;;;;5144917;27;20051;-66
2021/07/23 08:11:14;;;;;;;7.60;4.90;;;19.10;99.90;;;;;;5138859;27;20093;-66
2021/07/23 08:13:40;;;;;;;7.40;4.57;;;19.10;99.90;;;;;;5132501;27;20043;-66
2021/07/23 08:16:06;;;;;;;7.57;4.57;;;19.40;99.90;;;;;;5124326;27;20082;-66
2021/07/23 08:18:34;;;;;;;7.20;4.75;;;19.40;99.90;;;;;;5137168;27;20427;-66
2021/07/23 08:21:01;;;;;;;;;;;19.40;99.90;;;;;;5130789;27;20079;-66
2021/07/23 08:23:26;;;;;;;5.18;4.13;;;19.50;99.90;;;;;;5128641;27;19940;-66
2021/07/23 08:25:52;;;;;;;8.02;4.40;;;19.50;99.90;;;;;;5138313;27;20066;-66
2021/07/23 08:28:18;;;;;;;7.22;3.63;;;19.60;99.90;;;;;;5127997;27;20107;-66
2021/07/23 08:30:44;;;;;;;8.77;4.07;;;19.50;99.90;;;;;;5131321;27;20089;-66
2021/07/23 08:33:10;;;;;;;7.97;3.42;;;19.60;99.90;;;;;;5126975;28;20063;-66
2021/07/23 08:35:37;;;;;;;7.78;3.63;;;19.60;99.90;;;;;;5144924;27;20541;-66
2021/07/23 08:38:03;;;;;;;5.50;3.10;;;19.80;99.90;;;;;;5131478;27;20516;-66
2021/07/23 08:40:28;;;;;;;5.15;2.95;;;19.70;99.90;;;;;;5133050;27;20058;-66
2021/07/23 08:42:54;;;;;;;4.68;2.78;;;19.70;99.90;;;;;;5126176;28;20048;-66
2021/07/23 08:45:21;;;;;;;7.47;3.22;;;19.60;99.90;;;;;;5123860;28;20073;-66
2021/07/23 08:47:47;;;;;;;7.75;3.53;;;19.70;99.90;;;;;;5124468;28;20054;-66
2021/07/23 08:50:13;;;;;;;3.75;2.95;;;19.70;99.90;;;;;;5126085;28;20040;-66
2021/07/23 08:52:46;;;;;;;4.82;3.33;;;19.80;99.90;;;;;;5134224;28;20043;-66
2021/07/23 08:55:18;;;;;;;5.82;2.90;;;20.00;99.90;;;;;;5133901;28;20051;-66
2021/07/23 08:57:45;;;;;;;6.40;2.92;;;20.30;99.90;;;;;;5124498;28;20043;-66
2021/07/23 09:00:19;;;;;;;5.20;3.38;;;20.50;99.90;;;;;;5124233;28;20069;-66
2021/07/23 09:02:58;;;;;;;4.00;2.90;;;20.60;99.90;;;;;;5133810;28;20047;-66
2021/07/23 09:05:29;;;;;;;4.68;2.53;;;20.70;99.90;;;;;;5138493;28;20034;-66
2021/07/23 09:08:12;;;;;;;8.05;3.10;;;20.80;99.90;;;;;;5139773;28;20082;-66
2021/07/23 09:10:38;;;;;;;4.82;2.97;;;20.90;99.90;;;;;;5130640;28;20043;-66
2021/07/23 09:13:06;;;;;;;3.05;2.40;;;20.80;99.90;;;;;;5134697;28;20189;-66
2021/07/23 09:15:33;;;;;;;;;;;20.80;99.90;;;;;;5141829;28;20600;-66
2021/07/23 09:17:58;;;;;;;4.85;3.00;;;20.90;99.90;;;;;;5132313;28;20343;-66
2021/07/23 09:20:27;;;;;;;4.35;2.75;;;20.80;99.90;;;;;;5124980;28;20044;-66
2021/07/23 09:22:58;;;;;;;3.55;2.60;;;20.60;99.90;;;;;;5139764;27;20419;-66
2021/07/23 09:25:44;;;;;;;7.72;3.40;;;20.70;99.90;;;;;;5132624;27;20376;-66
2021/07/23 09:28:31;;;;;;;5.10;3.22;;;20.60;99.90;;;;;;5127878;27;20039;-66
2021/07/23 09:31:00;;;;;;;6.95;3.35;;;20.50;99.90;;;;;;5138017;27;20110;-66
2021/07/23 09:33:40;;;;;;;4.93;3.65;;;20.50;99.90;;;;;;5135456;27;20054;-66
2021/07/23 09:36:08;;;;;;;6.40;3.30;;;20.60;99.90;;;;;;5141662;27;20049;-66
2021/07/23 09:38:34;;;;;;;6.15;3.28;;;20.40;99.90;;;;;;5134014;27;20079;-66
2021/07/23 09:41:01;;;;;;;6.90;3.50;;;20.40;99.90;;;;;;5141623;27;20517;-66
2021/07/23 09:43:31;;;;;;;6.93;4.30;;;20.40;99.90;;;;;;5133273;27;20560;-66
2021/07/23 09:46:21;;;;;;;7.72;3.78;;;20.30;99.90;;;;;;5134598;27;20043;-66
2021/07/23 09:48:52;;;;;;;7.47;4.05;;;20.50;99.90;;;;;;5115185;27;20122;-66
2021/07/23 09:51:20;;;;;;;8.60;3.97;;;20.60;99.90;;;;;;5135341;27;20036;-66
2021/07/23 09:53:47;;;;;;;5.25;4.28;;;20.70;99.90;;;;;;5128680;27;20099;-66
2021/07/23 09:56:12;;;;;;;6.28;4.65;;;20.80;99.90;;;;;;5127056;27;20039;-66
2021/07/23 09:58:41;;;;;;;6.43;5.03;;;21.00;99.90;;;;;;5129605;27;20099;-66
2021/07/23 10:01:37;;;;;;;7.53;4.88;;;21.10;99.90;;;;;;5124418;27;20110;-66
2021/07/23 10:04:09;;;;;;;11.20;4.88;;;21.30;99.90;;;;;;5125351;27;20058;-66
2021/07/23 10:06:53;;;;;;;9.65;5.15;;;21.30;99.90;;;;;;5127920;27;20054;-66
2021/07/23 10:09:23;;;;;;;6.85;4.40;;;21.30;99.90;;;;;;5127628;27;20144;-66
2021/07/23 10:11:49;;;;;;;9.75;4.47;;;21.30;99.90;;;;;;5127637;27;20136;-66
2021/07/23 10:14:20;;;;;;;7.72;5.03;;;21.50;99.90;;;;;;5126897;27;20047;-66
2021/07/23 10:16:48;;;;;;;11.23;5.20;;;21.50;99.90;;;;;;5126350;28;20050;-66
2021/07/23 10:19:14;;;;;;;6.93;4.43;;;21.60;99.90;;;;;;5126634;28;20110;-65
2021/07/23 10:21:41;;;;;;;4.88;3.80;;;21.60;99.90;;;;;;5132529;27;20050;-66
2021/07/23 10:24:08;;;;;;;5.88;4.22;;;21.60;99.90;;;;;;5137628;27;20043;-66
2021/07/23 10:26:34;;;;;;;6.57;3.95;;;21.50;99.90;;;;;;5144131;27;20075;-66
2021/07/23 10:29:01;;;;;;;6.28;3.88;;;21.50;99.90;;;;;;5136680;27;20058;-66
2021/07/23 10:31:35;;;;;;;6.10;4.18;;;21.60;99.90;;;;;;5128330;27;20277;-65
2021/07/23 10:34:03;;;;;;;6.38;4.03;;;21.30;99.90;;;;;;5137917;27;20073;-65
2021/07/23 10:36:32;;;;;;;7.40;4.30;;;21.30;99.90;;;;;;5126508;27;20039;-66
2021/07/23 10:39:06;;;;;;;10.00;4.88;;;21.20;99.90;;;;;;5144630;27;20043;-66
2021/07/23 10:41:32;;;;;;;8.43;4.82;;;21.00;99.90;;;;;;5141647;27;20468;-66
2021/07/23 10:43:58;;;;;;;7.00;4.30;;;21.00;99.90;;;;;;5134609;27;20039;-65
2021/07/23 10:46:42;;;;;;;6.40;5.32;;;20.80;99.90;;;;;;5140485;27;20062;-66
2021/07/23 10:49:08;;;;;;;6.28;4.80;;;20.70;99.90;;;;;;5127260;27;20063;-66
2021/07/23 10:51:52;;;;;;;7.63;5.13;;;20.80;99.90;;;;;;5132828;27;20047;-65
2021/07/23 10:54:25;;;;;;;9.93;4.68;;;20.60;99.90;;;;;;5126871;27;20061;-66
2021/07/23 10:56:58;;;;;;;8.68;4.35;;;20.60;99.90;;;;;;5146525;27;20047;-65
2021/07/23 10:59:39;;;;;;;7.55;4.18;;;20.40;99.90;;;;;;5126219;27;20475;-65
2021/07/23 11:02:05;;;;;;;6.78;3.85;;;20.50;99.90;;;;;;5131066;27;20035;-65
2021/07/23 11:04:32;;;;;;;12.25;4.55;;;20.60;99.90;;;;;;5127035;28;20052;-64
2021/07/23 11:07:02;;;;;;;9.52;4.40;;;20.40;99.90;;;;;;5133594;27;20130;-66
2021/07/23 11:09:31;;;;;;;9.70;4.32;;;20.50;99.90;;;;;;5130472;27;20054;-66
2021/07/23 11:12:18;;;;;;;6.22;3.50;;;19.80;99.90;;;;;;5125836;27;20113;-66
2021/07/23 11:14:50;;;;;;;7.93;4.18;;;19.40;99.90;;;;;;5126422;27;20043;-65
2021/07/23 11:17:16;;;;;;;8.70;3.95;;;19.40;99.90;;;;;;5127524;27;20047;-65
2021/07/23 11:19:46;;;;;;;8.10;4.90;;;19.50;99.90;;;;;;5145432;27;20518;-65
2021/07/23 11:22:23;;;;;;;7.05;4.18;;;19.20;99.90;;;;;;5144284;27;20410;-65
2021/07/23 11:24:53;;;;;;;7.60;4.10;;;19.20;99.90;;;;;;5138456;27;20073;-65
2021/07/23 11:27:29;;;;;;;10.88;4.25;;;19.20;99.90;;;;;;5125477;27;20039;-66
2021/07/23 11:29:57;;;;;;;6.85;4.03;;;19.00;99.90;;;;;;5127452;27;20039;-65
2021/07/23 11:32:23;;;;;;;9.27;4.70;;;19.00;99.90;;;;;;5127843;27;20053;-65
2021/07/23 11:35:05;;;;;;;10.60;4.20;;;18.90;99.90;;;;;;5132372;27;20118;-65
2021/07/23 11:37:30;;;;;;;6.00;4.10;;;19.00;99.90;;;;;;5125458;28;20040;-66
2021/07/23 11:40:07;;;;;;;6.90;3.95;;;19.10;99.90;;;;;;5136485;27;20035;-66
2021/07/23 11:42:40;;;;;;;9.00;3.70;;;19.20;99.90;;;;;;5128876;27;20044;-66
2021/07/23 11:45:12;;;;;;;14.45;4.43;;;19.30;99.90;;;;;;5135424;27;20095;-65
2021/07/23 11:47:43;;;;;;;6.97;3.75;;;19.30;99.90;;;;;;5124906;27;20048;-65
2021/07/23 11:50:11;;;;;;;5.95;3.90;;;19.50;99.90;;;;;;5129896;27;20031;-65
2021/07/23 11:52:38;;;;;;;8.57;4.07;;;19.20;99.90;;;;;;5111375;28;20039;-66
2021/07/23 11:55:22;;;;;;;8.73;4.30;;;19.40;99.90;;;;;;5125088;28;20043;-66
2021/07/23 11:57:48;;;;;;;8.80;3.70;;;19.30;99.90;;;;;;5131011;27;20047;-65
2021/07/23 12:00:25;;;;;;;9.95;4.07;;;19.50;99.90;;;;;;5137375;27;20054;-66
2021/07/23 12:02:52;;;;;;;10.77;4.00;;;19.40;99.90;;;;;;5107212;28;20048;-65
2021/07/23 12:05:18;;;;;;;;;;;19.60;99.90;;;;;;5132687;27;20043;-65
2021/07/23 12:07:59;;;;;;;7.47;3.58;;;19.60;99.90;;;;;;5143518;27;20391;-66
2021/07/23 12:10:26;;;;;;;5.88;3.88;;;19.80;99.90;;;;;;5138468;27;20104;-66
2021/07/23 12:12:52;;;;;;;8.05;4.03;;;19.90;99.90;;;;;;5126297;27;20057;-65
2021/07/23 12:15:19;;;;;;;5.40;3.13;;;20.00;99.90;;;;;;5126584;27;20043;-64
2021/07/23 12:17:47;;;;;;;9.45;3.50;;;19.80;99.90;;;;;;5124732;28;20064;-65
2021/07/23 12:20:15;;;;;;;6.78;3.53;;;20.00;99.90;;;;;;5139984;27;20066;-65
2021/07/23 12:22:54;;;;;;;8.60;3.50;;;19.60;99.90;;;;;;5132996;27;20107;-65
2021/07/23 12:25:21;;;;;;;9.00;3.70;;;19.80;99.90;;;;;;5139324;27;20422;-65
2021/07/23 12:28:08;;;;;;;7.03;4.10;;;19.90;99.90;;;;;;5124914;28;20040;-65
2021/07/23 12:30:35;;;;;;;8.88;3.38;;;19.90;99.90;;;;;;5131206;27;20047;-66
2021/07/23 12:33:12;;;;;;;6.03;3.63;;;19.60;99.90;;;;;;5138409;27;20054;-65
2021/07/23 12:35:38;;;;;;;8.10;3.95;;;19.70;99.90;;;;;;5125104;27;20426;-65
2021/07/23 12:38:06;;;;;;;10.63;4.25;;;19.80;99.90;;;;;;5131489;28;20041;-65
2021/07/23 12:40:49;;;;;;;7.90;4.40;;;19.70;99.90;;;;;;5125874;27;20047;-66
2021/07/23 12:43:16;;;;;;;6.75;3.97;;;19.80;99.90;;;;;;5111398;28;20043;-66
2021/07/23 12:45:42;;;;;;;8.50;4.38;;;20.10;99.90;;;;;;5141870;28;20050;-66